Hiawatha, KS

04:02 PM CST 2018 urtarrila ren 22 an (GMT -0600)
South Hiawatha | | Change Station

Elev 1132 ft 39.85 °N, 95.54 °W | Updated 22 seconds ago

Estalia
Estalia
31.6 °F
Feels Like 28 °F
N
3.7
Haizea Aldagarria Haizea from IIE

Gaur
High -- | Low -- °F
--% Chance of Precip.
Yesterday
High -- | Low -- °F
Precip. -- in
Presioa 29.51 in
Ikusgaitasuna 3.0 Miliak
Clouds Goraki estalia 700 ft
Estalia 1100 ft
Izozki haizeak 28 °F
Ihintzaren maila 31 °F
Afoinua 99%
Rainfall 0.05 in
Snow Depth Not available.
7:38 AM 5:29 PM
Waxing Crescent, 29% visible
METAR KFNB 222153Z AUTO 32021G29KT 3SM BR BKN007 OVC011 01/M01 A2949 RMK AO2 PK WND 32031/2142 SLP991 T00061006
Presioa 29.51 in
Ikusgaitasuna 3.0 Miliak
Clouds Goraki estalia 700 ft
Estalia 1100 ft
Izozki haizeak 28 °F
Ihintzaren maila 31 °F
Afoinua 99%
Rainfall 0.05 in
Snow Depth Not available.
7:38 AM 5:29 PM
Waxing Crescent, 29% visible
METAR KFNB 222153Z AUTO 32021G29KT 3SM BR BKN007 OVC011 01/M01 A2949 RMK AO2 PK WND 32031/2142 SLP991 T00061006

Get Severe Weather Alerts

Thanks for signing up!

Be on the lookout for a verification email in your inbox.

You'll start receiving the daily forecast at 6 AM.

×

10-Day Weather Forecast

Almanac

Astronomy

Jan. 22, 2018 Rise Set
Actual Time
Civil Twilight
Nautical Twilight
Astronomical Twilight
Moon
Length Of Visible Light
Length of Day
Tomorrow will be .
, % of the Moon is Illuminated

Today's Extremes

State Highs State Lows

Community

WunderPhotos

Category 6

Welcome to Category 6. This is the collective home for Weather Underground's featured writeups by Dr. Jeff Masters (right), Bob Henson (left), Chris Burt, and other regular contributors.

Nearby

Air Quality

  Air Quality AQ Index Pollutant
Not available.

Snow Depth

Station Depth Elevation

Earthquake Activity

City Distance Mag. Time & Date
Minimum magnitude displayed is 2.5.

Coastal Water Temperatures

Lekua Tenperatura

Stations

Nearby Weather Stations

Station Location Temp Izozki haizeak Ihintzaren maila Afoinua Haizea Precip. Elev Eguneratuta Type
                   

Watches & Warnings

There are currently no watches in effect.